Time;durP1;ratioP1;P1;durP2;ratioP2;P2;SDS_P1;SDS_P2;PMS_P1;PMS_P2;Temp;Humidity;BMP_temperature;BMP_pressure;BME280_temperature;BME280_humidity;BME280_pressure;Samples;Min_cycle;Max_cycle;Signal;HPM_P1;HPM_P2
2023/05/31 00:01:21;;;;;;;1.98;1.80;;;;;;;;;;5139200;27;20202;-65
2023/05/31 00:03:50;;;;;;;2.08;1.88;;;;;;;;;;5138860;27;20210;-64
2023/05/31 00:06:18;;;;;;;3.00;2.13;;;;;;;;;;5138356;27;20641;-64
2023/05/31 00:08:45;;;;;;;2.85;1.95;;;;;;;;;;5139221;27;20212;-64
2023/05/31 00:11:13;;;;;;;2.25;2.00;;;;;;;;;;5130877;27;20686;-65
2023/05/31 00:13:40;;;;;;;2.78;2.00;;;;;;;;;;5138565;27;20209;-64
2023/05/31 00:16:08;;;;;;;2.28;2.08;;;;;;;;;;5138887;27;20586;-64
2023/05/31 00:18:36;;;;;;;2.70;2.30;;;;;;;;;;5138805;27;20202;-64
2023/05/31 00:21:05;;;;;;;1.95;1.75;;;;;;;;;;5138545;27;20229;-64
2023/05/31 00:23:32;;;;;;;2.38;1.83;;;;;;;;;;5138271;27;20238;-65
2023/05/31 00:26:00;;;;;;;1.73;1.63;;;;;;;;;;5138910;27;20259;-65
2023/05/31 00:28:28;;;;;;;2.40;2.00;;;;;;;;;;5138797;27;20216;-64
2023/05/31 00:30:55;;;;;;;2.78;2.20;;;;;;;;;;5138241;27;20202;-65
2023/05/31 00:33:23;;;;;;;2.80;2.30;;;;;;;;;;5139364;27;20559;-64
2023/05/31 00:35:50;;;;;;;2.50;2.00;;;;;;;;;;5138498;27;20226;-65
2023/05/31 00:38:19;;;;;;;2.20;1.90;;;;;;;;;;5138608;27;20655;-64
2023/05/31 00:40:47;;;;;;;2.20;1.95;;;;;;;;;;5138775;27;20216;-64
2023/05/31 00:43:15;;;;;;;2.38;2.15;;;;;;;;;;5138269;27;20212;-64
2023/05/31 00:45:42;;;;;;;2.47;1.70;;;;;;;;;;5137932;27;20226;-64
2023/05/31 00:48:10;;;;;;;1.90;1.60;;;;;;;;;;5138858;27;20601;-64
2023/05/31 00:50:37;;;;;;;2.22;1.80;;;;;;;;;;5138577;28;20217;-65
2023/05/31 00:53:05;;;;;;;2.45;1.98;;;;;;;;;;5138086;27;20570;-64
2023/05/31 00:55:34;;;;;;;3.17;2.20;;;;;;;;;;5138170;27;20613;-65
2023/05/31 00:58:02;;;;;;;2.22;2.00;;;;;;;;;;5138290;27;20228;-64
2023/05/31 01:00:30;;;;;;;2.75;2.00;;;;;;;;;;5138102;27;20206;-64
2023/05/31 01:03:01;;;;;;;3.42;2.08;;;;;;;;;;5138419;27;20267;-65
2023/05/31 01:05:28;;;;;;;2.30;2.10;;;;;;;;;;5138695;27;20202;-64
2023/05/31 01:07:56;;;;;;;2.28;2.08;;;;;;;;;;5137859;27;20203;-64
2023/05/31 01:10:23;;;;;;;2.78;2.15;;;;;;;;;;5137940;27;20237;-64
2023/05/31 01:12:55;;;;;;;2.33;2.13;;;;;;;;;;5137843;28;20488;-64
2023/05/31 01:15:25;;;;;;;3.08;2.15;;;;;;;;;;5137446;28;20217;-64
2023/05/31 01:17:59;;;;;;;3.25;2.13;;;;;;;;;;5137934;27;20205;-64
2023/05/31 01:20:28;;;;;;;3.50;2.17;;;;;;;;;;5137592;27;20252;-64
2023/05/31 01:23:05;;;;;;;2.60;2.17;;;;;;;;;;5137563;28;20214;-65
2023/05/31 01:25:50;;;;;;;2.47;1.92;;;;;;;;;;5137723;28;20647;-64
2023/05/31 01:28:20;;;;;;;2.30;2.10;;;;;;;;;;5087631;28;20262;-65
2023/05/31 01:30:50;;;;;;;2.33;2.10;;;;;;;;;;5137860;28;20202;-64
2023/05/31 01:33:19;;;;;;;2.40;1.98;;;;;;;;;;5137660;27;20625;-65
2023/05/31 01:35:46;;;;;;;3.80;2.20;;;;;;;;;;5141128;27;20238;-64
2023/05/31 01:38:14;;;;;;;2.47;2.08;;;;;;;;;;5141688;27;20604;-64
2023/05/31 01:40:41;;;;;;;2.10;1.70;;;;;;;;;;5141970;27;20508;-64
2023/05/31 01:43:10;;;;;;;3.50;2.13;;;;;;;;;;5141685;27;20212;-65
2023/05/31 01:45:40;;;;;;;3.20;2.08;;;;;;;;;;5141404;27;20245;-65
2023/05/31 01:48:09;;;;;;;2.55;2.35;;;;;;;;;;5141917;27;20267;-64
2023/05/31 01:50:37;;;;;;;2.78;2.40;;;;;;;;;;5141451;27;20567;-64
2023/05/31 01:53:05;;;;;;;2.53;2.13;;;;;;;;;;5141354;27;20206;-64
2023/05/31 01:55:32;;;;;;;2.65;2.45;;;;;;;;;;5140912;27;20263;-64
2023/05/31 01:58:01;;;;;;;2.75;2.17;;;;;;;;;;5141164;27;20199;-64
2023/05/31 02:00:29;;;;;;;2.83;2.15;;;;;;;;;;5141658;27;20210;-64
2023/05/31 02:02:59;;;;;;;2.92;2.10;;;;;;;;;;5141703;27;20202;-64
2023/05/31 02:05:26;;;;;;;2.88;2.30;;;;;;;;;;5141336;27;20503;-65
2023/05/31 02:07:54;;;;;;;2.53;2.00;;;;;;;;;;5141325;27;20222;-64
2023/05/31 02:10:22;;;;;;;2.17;1.98;;;;;;;;;;5141117;27;20640;-64
2023/05/31 02:12:50;;;;;;;2.72;2.20;;;;;;;;;;5141564;27;20266;-65
2023/05/31 02:15:19;;;;;;;2.65;2.05;;;;;;;;;;5141138;27;20586;-64
2023/05/31 02:17:50;;;;;;;2.60;2.10;;;;;;;;;;5141323;27;20198;-64
2023/05/31 02:20:19;;;;;;;2.17;1.85;;;;;;;;;;5141443;27;20263;-64
2023/05/31 02:22:48;;;;;;;2.83;2.53;;;;;;;;;;5140599;27;20213;-64
2023/05/31 02:25:16;;;;;;;2.60;1.83;;;;;;;;;;5141637;27;20237;-64
2023/05/31 02:27:44;;;;;;;2.88;2.42;;;;;;;;;;5140964;27;20257;-64
2023/05/31 02:30:12;;;;;;;2.20;2.00;;;;;;;;;;5140971;27;20202;-64
2023/05/31 02:32:41;;;;;;;2.55;2.17;;;;;;;;;;5140749;27;20214;-64
2023/05/31 02:35:10;;;;;;;2.30;2.10;;;;;;;;;;5140395;27;20246;-64
2023/05/31 02:37:40;;;;;;;2.45;2.25;;;;;;;;;;5140723;27;20604;-64
2023/05/31 02:40:08;;;;;;;2.90;2.20;;;;;;;;;;5140452;27;20245;-64
2023/05/31 02:42:37;;;;;;;2.20;2.00;;;;;;;;;;5140388;27;20203;-64
2023/05/31 02:45:05;;;;;;;2.30;1.98;;;;;;;;;;5140237;27;20257;-65
2023/05/31 02:47:33;;;;;;;2.45;2.25;;;;;;;;;;5140610;27;20287;-64
2023/05/31 02:50:01;;;;;;;3.03;2.20;;;;;;;;;;5140310;27;20250;-64
2023/05/31 02:52:28;;;;;;;2.33;2.05;;;;;;;;;;5140054;27;20578;-64
2023/05/31 02:54:58;;;;;;;2.20;2.00;;;;;;;;;;5139973;27;20611;-64
2023/05/31 02:57:25;;;;;;;2.35;2.10;;;;;;;;;;5139925;27;20210;-64
2023/05/31 02:59:56;;;;;;;2.80;2.00;;;;;;;;;;5140277;27;20210;-65
2023/05/31 03:02:25;;;;;;;2.20;1.80;;;;;;;;;;5139969;27;20220;-64
2023/05/31 03:04:53;;;;;;;2.30;2.10;;;;;;;;;;5139469;27;20242;-64
2023/05/31 03:07:21;;;;;;;1.90;1.80;;;;;;;;;;5139967;27;20226;-65
2023/05/31 03:09:49;;;;;;;2.40;2.13;;;;;;;;;;5139923;27;20492;-64
2023/05/31 03:12:18;;;;;;;2.58;2.13;;;;;;;;;;5139779;27;20206;-64
2023/05/31 03:14:45;;;;;;;2.55;2.20;;;;;;;;;;5139701;27;20212;-64
2023/05/31 03:17:12;;;;;;;2.38;2.17;;;;;;;;;;5139526;27;20198;-64
2023/05/31 03:19:40;;;;;;;2.30;2.10;;;;;;;;;;5138895;27;20210;-65
2023/05/31 03:22:07;;;;;;;3.28;2.40;;;;;;;;;;5138055;27;20202;-64
2023/05/31 03:24:35;;;;;;;3.20;2.40;;;;;;;;;;5139233;27;20217;-64
2023/05/31 03:27:02;;;;;;;1.92;1.83;;;;;;;;;;5138714;27;20291;-64
2023/05/31 03:29:31;;;;;;;2.00;1.80;;;;;;;;;;5139298;27;20198;-64
2023/05/31 03:31:58;;;;;;;2.30;2.10;;;;;;;;;;5139274;27;20202;-64
2023/05/31 03:34:27;;;;;;;2.47;2.28;;;;;;;;;;5138665;27;20245;-64
2023/05/31 03:36:54;;;;;;;2.67;2.08;;;;;;;;;;5139189;27;20289;-64
2023/05/31 03:39:21;;;;;;;3.10;2.33;;;;;;;;;;5138846;27;20203;-64
2023/05/31 03:41:49;;;;;;;3.45;2.13;;;;;;;;;;5139280;27;20206;-64
2023/05/31 03:44:16;;;;;;;2.90;2.28;;;;;;;;;;5137970;27;20210;-64
2023/05/31 03:46:45;;;;;;;2.58;2.30;;;;;;;;;;5138731;27;20218;-64
2023/05/31 03:49:12;;;;;;;3.45;2.30;;;;;;;;;;5138174;27;20202;-64
2023/05/31 03:51:40;;;;;;;2.22;2.03;;;;;;;;;;5138285;27;20206;-64
2023/05/31 03:54:07;;;;;;;2.63;2.13;;;;;;;;;;5138850;27;20582;-64
2023/05/31 03:56:35;;;;;;;3.03;2.33;;;;;;;;;;5137914;27;20203;-64
2023/05/31 03:59:02;;;;;;;2.45;2.25;;;;;;;;;;5137887;27;20224;-64
2023/05/31 04:01:29;;;;;;;3.25;2.20;;;;;;;;;;5138193;27;20577;-64
2023/05/31 04:03:58;;;;;;;2.22;2.03;;;;;;;;;;5137685;27;20243;-64
2023/05/31 04:06:26;;;;;;;2.38;1.90;;;;;;;;;;5138362;27;20450;-64
2023/05/31 04:08:54;;;;;;;2.35;2.15;;;;;;;;;;5138652;27;20218;-64
2023/05/31 04:11:21;;;;;;;2.40;2.20;;;;;;;;;;5138575;27;20210;-64
2023/05/31 04:13:48;;;;;;;2.40;2.20;;;;;;;;;;5138098;27;20198;-64
2023/05/31 04:16:16;;;;;;;3.80;2.60;;;;;;;;;;5137447;27;20233;-64
2023/05/31 04:18:43;;;;;;;2.40;2.20;;;;;;;;;;5137745;27;20198;-64
2023/05/31 04:21:12;;;;;;;4.45;2.28;;;;;;;;;;5138094;27;20210;-64
2023/05/31 04:23:39;;;;;;;2.75;2.45;;;;;;;;;;5137709;27;20255;-64
2023/05/31 04:26:07;;;;;;;2.30;2.10;;;;;;;;;;5137144;27;20214;-64
2023/05/31 04:28:34;;;;;;;3.28;2.47;;;;;;;;;;5137680;27;20234;-64
2023/05/31 04:31:02;;;;;;;2.75;2.28;;;;;;;;;;5136699;27;20570;-64
2023/05/31 04:33:30;;;;;;;2.97;2.38;;;;;;;;;;5137674;27;20623;-64
2023/05/31 04:35:58;;;;;;;3.13;2.50;;;;;;;;;;5136187;27;20238;-64
2023/05/31 04:38:27;;;;;;;3.13;2.40;;;;;;;;;;5136616;27;20199;-64
2023/05/31 04:40:55;;;;;;;3.45;2.55;;;;;;;;;;5135576;27;20233;-64
2023/05/31 04:43:23;;;;;;;3.60;2.80;;;;;;;;;;5135776;27;20206;-64
2023/05/31 04:45:50;;;;;;;3.65;2.30;;;;;;;;;;5136287;27;20249;-64
2023/05/31 04:48:19;;;;;;;4.28;2.40;;;;;;;;;;5136877;27;20234;-65
2023/05/31 04:50:48;;;;;;;3.00;2.20;;;;;;;;;;5136640;27;20205;-64
2023/05/31 04:53:15;;;;;;;3.15;2.40;;;;;;;;;;5135571;27;20254;-64
2023/05/31 04:55:44;;;;;;;4.13;2.50;;;;;;;;;;5136569;27;20205;-64
2023/05/31 04:58:12;;;;;;;2.90;2.45;;;;;;;;;;5135124;27;20198;-64
2023/05/31 05:00:39;;;;;;;2.78;2.40;;;;;;;;;;5134940;27;20213;-64
2023/05/31 05:03:07;;;;;;;2.97;2.70;;;;;;;;;;5135185;28;20202;-64
2023/05/31 05:05:34;;;;;;;2.95;2.63;;;;;;;;;;5134208;27;20202;-64
2023/05/31 05:08:02;;;;;;;3.15;2.38;;;;;;;;;;5134936;27;20221;-65
2023/05/31 05:10:29;;;;;;;3.15;2.65;;;;;;;;;;5139196;27;20202;-64
2023/05/31 05:12:58;;;;;;;3.53;2.40;;;;;;;;;;5139133;27;20302;-64
2023/05/31 05:15:25;;;;;;;3.42;2.55;;;;;;;;;;5140528;27;20629;-64
2023/05/31 05:17:53;;;;;;;2.63;2.25;;;;;;;;;;5139192;27;20199;-65
2023/05/31 05:20:20;;;;;;;3.38;2.55;;;;;;;;;;5139359;27;20296;-64
2023/05/31 05:22:52;;;;;;;2.95;2.75;;;;;;;;;;5138912;27;20533;-64
2023/05/31 05:25:20;;;;;;;3.60;2.85;;;;;;;;;;5138643;27;20633;-64
2023/05/31 05:27:47;;;;;;;3.05;2.75;;;;;;;;;;5139350;27;20489;-64
2023/05/31 05:30:17;;;;;;;3.97;2.90;;;;;;;;;;5139555;27;20267;-64
2023/05/31 05:32:44;;;;;;;2.83;2.58;;;;;;;;;;5137920;27;20386;-64
2023/05/31 05:35:11;;;;;;;3.08;2.78;;;;;;;;;;5137329;27;20345;-65
2023/05/31 05:37:38;;;;;;;3.17;2.50;;;;;;;;;;5137708;27;20206;-65
2023/05/31 05:40:07;;;;;;;3.22;2.92;;;;;;;;;;5135893;27;20649;-64
2023/05/31 05:42:36;;;;;;;2.65;2.40;;;;;;;;;;5136137;27;20531;-65
2023/05/31 05:45:05;;;;;;;3.30;2.88;;;;;;;;;;5137555;27;20212;-64
2023/05/31 05:47:33;;;;;;;3.70;2.63;;;;;;;;;;5136211;27;20222;-65
2023/05/31 05:50:01;;;;;;;3.67;2.63;;;;;;;;;;5135642;27;20198;-64
2023/05/31 05:52:28;;;;;;;3.13;2.55;;;;;;;;;;5135804;27;20198;-65
2023/05/31 05:54:55;;;;;;;3.15;2.78;;;;;;;;;;5136734;27;20405;-65
2023/05/31 05:57:24;;;;;;;3.28;2.90;;;;;;;;;;5137678;27;20202;-64
2023/05/31 05:59:52;;;;;;;3.28;2.97;;;;;;;;;;5136970;27;20585;-64
2023/05/31 06:02:19;;;;;;;3.20;2.63;;;;;;;;;;5138135;27;20202;-64
2023/05/31 06:04:49;;;;;;;3.35;2.70;;;;;;;;;;5136075;27;20209;-64
2023/05/31 06:07:17;;;;;;;2.90;2.60;;;;;;;;;;5135324;27;20209;-64
2023/05/31 06:09:44;;;;;;;2.70;2.50;;;;;;;;;;5136976;27;20582;-64
2023/05/31 06:12:12;;;;;;;3.33;2.78;;;;;;;;;;5136744;27;20206;-64
2023/05/31 06:14:39;;;;;;;3.22;2.92;;;;;;;;;;5138564;27;20202;-65
2023/05/31 06:17:07;;;;;;;4.15;3.22;;;;;;;;;;5137786;27;20206;-65
2023/05/31 06:19:35;;;;;;;3.13;2.67;;;;;;;;;;5138206;27;20202;-65
2023/05/31 06:22:03;;;;;;;4.18;2.78;;;;;;;;;;5138062;27;20308;-64
2023/05/31 06:24:30;;;;;;;2.90;2.60;;;;;;;;;;5138575;27;20213;-64
2023/05/31 06:26:58;;;;;;;3.00;2.70;;;;;;;;;;5138388;27;20613;-64
2023/05/31 06:29:25;;;;;;;2.97;2.47;;;;;;;;;;5138142;27;20233;-64
2023/05/31 06:31:52;;;;;;;3.83;2.83;;;;;;;;;;5136955;27;20309;-64
2023/05/31 06:34:20;;;;;;;2.83;2.53;;;;;;;;;;5137527;27;20649;-64
2023/05/31 06:36:47;;;;;;;3.20;2.90;;;;;;;;;;5137670;27;20563;-64
2023/05/31 06:39:16;;;;;;;2.85;2.60;;;;;;;;;;5136196;27;20198;-64
2023/05/31 06:41:43;;;;;;;3.15;2.72;;;;;;;;;;5136945;27;20194;-64
2023/05/31 06:44:10;;;;;;;3.55;3.00;;;;;;;;;;5137353;27;20225;-64
2023/05/31 06:46:39;;;;;;;3.13;2.83;;;;;;;;;;5136004;27;20214;-64
2023/05/31 06:49:07;;;;;;;3.55;2.80;;;;;;;;;;5136514;27;20523;-64
2023/05/31 06:51:35;;;;;;;3.00;2.70;;;;;;;;;;5136930;27;20202;-64
2023/05/31 06:54:02;;;;;;;3.42;2.80;;;;;;;;;;5137816;27;20199;-64
2023/05/31 06:56:31;;;;;;;3.78;3.13;;;;;;;;;;5136857;27;20198;-64
2023/05/31 06:58:58;;;;;;;3.40;2.78;;;;;;;;;;5137177;27;20199;-64
2023/05/31 07:01:26;;;;;;;2.78;2.53;;;;;;;;;;5137944;27;20228;-64
2023/05/31 07:03:53;;;;;;;3.33;2.80;;;;;;;;;;5137167;27;20202;-65
2023/05/31 07:06:21;;;;;;;3.53;3.13;;;;;;;;;;5137533;27;20198;-64
2023/05/31 07:08:48;;;;;;;3.08;2.78;;;;;;;;;;5136722;27;20282;-64
2023/05/31 07:11:16;;;;;;;3.63;2.80;;;;;;;;;;5136639;27;20225;-64
2023/05/31 07:13:44;;;;;;;4.25;3.13;;;;;;;;;;5136418;27;20224;-64
2023/05/31 07:16:12;;;;;;;4.05;3.00;;;;;;;;;;5135551;27;20206;-65
2023/05/31 07:18:39;;;;;;;3.38;3.08;;;;;;;;;;5136878;27;20205;-65
2023/05/31 07:21:08;;;;;;;3.55;2.85;;;;;;;;;;5134735;27;20516;-64
2023/05/31 07:23:35;;;;;;;3.70;2.67;;;;;;;;;;5136269;27;20194;-64
2023/05/31 07:26:02;;;;;;;4.50;2.65;;;;;;;;;;5136914;27;20202;-64
2023/05/31 07:28:30;;;;;;;3.42;2.67;;;;;;;;;;5128707;27;20222;-64
2023/05/31 07:30:59;;;;;;;4.30;2.50;;;;;;;;;;5119254;27;20648;-64
2023/05/31 07:33:26;;;;;;;3.97;2.80;;;;;;;;;;5123893;27;20605;-64
2023/05/31 07:35:53;;;;;;;3.17;2.58;;;;;;;;;;5115260;27;20449;-64
2023/05/31 07:38:21;;;;;;;3.50;2.50;;;;;;;;;;5135766;27;20194;-64
2023/05/31 07:40:48;;;;;;;3.75;2.50;;;;;;;;;;5135485;27;20202;-64
2023/05/31 07:43:16;;;;;;;3.83;2.55;;;;;;;;;;5135551;27;20210;-64
2023/05/31 07:45:43;;;;;;;3.70;2.33;;;;;;;;;;5126856;27;20200;-64
2023/05/31 07:48:12;;;;;;;4.28;2.08;;;;;;;;;;5116303;28;20226;-64
2023/05/31 07:50:39;;;;;;;2.65;2.25;;;;;;;;;;5115558;28;20210;-64
2023/05/31 07:53:06;;;;;;;3.30;2.10;;;;;;;;;;5114079;28;20215;-64
2023/05/31 07:55:35;;;;;;;3.33;2.30;;;;;;;;;;5114264;28;20206;-64
2023/05/31 07:58:03;;;;;;;2.50;1.98;;;;;;;;;;5114746;28;20191;-64
2023/05/31 08:00:30;;;;;;;3.08;2.40;;;;;;;;;;5114844;28;20209;-64
2023/05/31 08:02:58;;;;;;;2.53;2.03;;;;;;;;;;5116493;27;20194;-64
2023/05/31 08:05:26;;;;;;;4.43;1.88;;;;;;;;;;5134817;27;20202;-64
2023/05/31 08:07:54;;;;;;;2.60;2.10;;;;;;;;;;5134910;27;20206;-64
2023/05/31 08:10:21;;;;;;;3.10;1.90;;;;;;;;;;5134432;27;20478;-64
2023/05/31 08:12:49;;;;;;;2.47;2.13;;;;;;;;;;5132833;27;20245;-64
2023/05/31 08:15:16;;;;;;;2.85;2.10;;;;;;;;;;5115137;28;20203;-64
2023/05/31 08:17:44;;;;;;;4.25;2.35;;;;;;;;;;5127148;27;20210;-64
2023/05/31 08:20:13;;;;;;;3.30;2.20;;;;;;;;;;5135197;27;20230;-64
2023/05/31 08:22:44;;;;;;;3.92;2.00;;;;;;;;;;5135233;27;20202;-64
2023/05/31 08:25:13;;;;;;;5.18;2.22;;;;;;;;;;5134145;27;20214;-64
2023/05/31 08:27:41;;;;;;;3.50;2.20;;;;;;;;;;5135048;27;20202;-64
2023/05/31 08:30:10;;;;;;;3.35;2.10;;;;;;;;;;5134497;27;20234;-64
2023/05/31 08:32:37;;;;;;;4.03;2.15;;;;;;;;;;5131289;27;20311;-64
2023/05/31 08:35:06;;;;;;;2.60;1.90;;;;;;;;;;5125552;27;20246;-65
2023/05/31 08:37:33;;;;;;;2.35;1.92;;;;;;;;;;5114038;28;20234;-64
2023/05/31 08:40:03;;;;;;;4.07;2.00;;;;;;;;;;5115167;28;20275;-64
2023/05/31 08:42:35;;;;;;;2.80;1.90;;;;;;;;;;5114051;28;20195;-64
2023/05/31 08:45:04;;;;;;;1.75;1.65;;;;;;;;;;5114075;28;20203;-64
2023/05/31 08:47:36;;;;;;;3.00;1.88;;;;;;;;;;5114786;28;20203;-64
2023/05/31 08:50:04;;;;;;;5.40;2.30;;;;;;;;;;5115741;28;20262;-64
2023/05/31 08:52:33;;;;;;;3.50;2.00;;;;;;;;;;5134583;27;20533;-64
2023/05/31 08:55:04;;;;;;;2.90;1.90;;;;;;;;;;5155045;27;20201;-65
2023/05/31 08:57:33;;;;;;;3.40;1.60;;;;;;;;;;5155388;27;20205;-64
2023/05/31 09:00:08;;;;;;;2.58;1.98;;;;;;;;;;5155868;27;20472;-65
2023/05/31 09:02:35;;;;;;;3.17;1.95;;;;;;;;;;5155635;27;20441;-65
2023/05/31 09:05:04;;;;;;;2.50;1.80;;;;;;;;;;5154333;27;20206;-64
2023/05/31 09:07:31;;;;;;;2.78;1.75;;;;;;;;;;5154623;27;20429;-65
2023/05/31 09:09:59;;;;;;;3.38;1.83;;;;;;;;;;5154929;27;20510;-65
2023/05/31 09:12:28;;;;;;;3.13;1.58;;;;;;;;;;5154841;27;20258;-64
2023/05/31 09:14:56;;;;;;;3.05;1.90;;;;;;;;;;5154407;27;20197;-65
2023/05/31 09:17:23;;;;;;;2.88;1.80;;;;;;;;;;5156112;27;20201;-65
2023/05/31 09:19:52;;;;;;;3.17;2.10;;;;;;;;;;5155594;27;20229;-64
2023/05/31 09:22:20;;;;;;;3.13;1.73;;;;;;;;;;5154480;27;20216;-64
2023/05/31 09:24:57;;;;;;;3.20;2.03;;;;;;;;;;5155678;27;20251;-64
2023/05/31 09:27:24;;;;;;;2.80;2.00;;;;;;;;;;5154849;27;20464;-64
2023/05/31 09:29:56;;;;;;;3.13;1.90;;;;;;;;;;5154643;27;20222;-65
2023/05/31 09:32:24;;;;;;;2.15;1.83;;;;;;;;;;5155452;27;20213;-65
2023/05/31 09:34:51;;;;;;;3.50;1.92;;;;;;;;;;5155331;27;20512;-65
2023/05/31 09:37:25;;;;;;;2.50;1.85;;;;;;;;;;5156409;27;20209;-65
2023/05/31 09:39:56;;;;;;;3.50;2.13;;;;;;;;;;5157084;27;20198;-65
2023/05/31 09:42:26;;;;;;;3.10;2.00;;;;;;;;;;5156966;27;20241;-64
2023/05/31 09:44:54;;;;;;;2.50;2.17;;;;;;;;;;5155211;27;20581;-65
2023/05/31 09:47:26;;;;;;;2.35;1.92;;;;;;;;;;5156466;27;20228;-65
2023/05/31 09:49:55;;;;;;;2.97;1.83;;;;;;;;;;5155248;27;20527;-65
2023/05/31 09:52:27;;;;;;;2.25;1.90;;;;;;;;;;5137449;27;20204;-65
2023/05/31 09:54:55;;;;;;;2.88;1.80;;;;;;;;;;5155207;27;20686;-65
2023/05/31 09:57:31;;;;;;;2.13;1.90;;;;;;;;;;5159092;27;20201;-64
2023/05/31 10:00:00;;;;;;;3.42;2.10;;;;;;;;;;5159347;27;20304;-64
2023/05/31 10:02:29;;;;;;;3.42;2.03;;;;;;;;;;5160073;27;20285;-64
2023/05/31 10:04:57;;;;;;;2.83;2.08;;;;;;;;;;5159353;27;20194;-65
2023/05/31 10:07:25;;;;;;;2.63;1.95;;;;;;;;;;5159576;27;20197;-64
2023/05/31 10:09:52;;;;;;;2.22;1.95;;;;;;;;;;5158532;27;20325;-64
2023/05/31 10:12:20;;;;;;;2.70;1.80;;;;;;;;;;5159294;27;20194;-64
2023/05/31 10:14:51;;;;;;;2.38;1.77;;;;;;;;;;5159183;27;20213;-64
2023/05/31 10:17:20;;;;;;;2.38;1.90;;;;;;;;;;5158567;27;20624;-65
2023/05/31 10:19:51;;;;;;;2.10;1.75;;;;;;;;;;5158046;27;20332;-64
2023/05/31 10:22:19;;;;;;;2.85;1.88;;;;;;;;;;5158435;27;20202;-64
2023/05/31 10:24:50;;;;;;;2.83;1.98;;;;;;;;;;5158252;27;20208;-64
2023/05/31 10:27:21;;;;;;;1.98;1.75;;;;;;;;;;5158020;27;20213;-64
2023/05/31 10:29:51;;;;;;;2.40;1.83;;;;;;;;;;5157429;27;20232;-64
2023/05/31 10:32:21;;;;;;;2.63;2.00;;;;;;;;;;5158720;27;20266;-64
2023/05/31 10:34:50;;;;;;;2.20;1.90;;;;;;;;;;5156567;27;20245;-64
2023/05/31 10:37:18;;;;;;;2.40;1.85;;;;;;;;;;5155809;27;20214;-64
2023/05/31 10:39:48;;;;;;;2.63;1.83;;;;;;;;;;5156982;27;20201;-64
2023/05/31 10:42:21;;;;;;;2.78;1.90;;;;;;;;;;5156193;27;20273;-65
2023/05/31 10:44:51;;;;;;;3.38;2.00;;;;;;;;;;5154274;27;20223;-64
2023/05/31 10:47:22;;;;;;;4.55;2.28;;;;;;;;;;5155245;27;20217;-65
2023/05/31 10:49:52;;;;;;;2.30;1.80;;;;;;;;;;5156275;27;20439;-65
2023/05/31 10:52:19;;;;;;;3.83;2.00;;;;;;;;;;5157100;27;20429;-64
2023/05/31 10:54:47;;;;;;;2.78;2.10;;;;;;;;;;5157306;27;20453;-64
2023/05/31 10:57:16;;;;;;;2.03;1.70;;;;;;;;;;5155243;27;20288;-64
2023/05/31 10:59:46;;;;;;;2.30;1.70;;;;;;;;;;5156006;27;20345;-64
2023/05/31 11:02:13;;;;;;;3.30;1.90;;;;;;;;;;5155267;27;20508;-64
2023/05/31 11:04:41;;;;;;;2.95;1.85;;;;;;;;;;5157219;27;20212;-64
2023/05/31 11:07:17;;;;;;;2.40;1.88;;;;;;;;;;5156361;27;20289;-64
2023/05/31 11:09:59;;;;;;;2.20;1.90;;;;;;;;;;5156541;27;20269;-64
2023/05/31 11:12:36;;;;;;;3.10;2.00;;;;;;;;;;5155967;27;20201;-65
2023/05/31 11:15:04;;;;;;;3.13;1.75;;;;;;;;;;5155853;27;20208;-65
2023/05/31 11:17:40;;;;;;;3.20;1.80;;;;;;;;;;5156252;27;20206;-64
2023/05/31 11:20:09;;;;;;;2.92;1.90;;;;;;;;;;5155617;27;20541;-64
2023/05/31 11:22:38;;;;;;;2.17;1.98;;;;;;;;;;5153856;27;20613;-64
2023/05/31 11:25:09;;;;;;;1.88;1.63;;;;;;;;;;5156414;27;20229;-65
2023/05/31 11:27:37;;;;;;;2.67;2.10;;;;;;;;;;5156360;27;20202;-65
2023/05/31 11:30:08;;;;;;;2.30;1.63;;;;;;;;;;5155433;27;20218;-64
2023/05/31 11:33:00;;;;;;;2.92;1.70;;;;;;;;;;5153265;27;20728;-65
2023/05/31 11:35:32;;;;;;;3.13;1.80;;;;;;;;;;5154665;27;20233;-65
2023/05/31 11:38:04;;;;;;;2.60;2.00;;;;;;;;;;5155386;27;20229;-64
2023/05/31 11:40:32;;;;;;;2.90;1.65;;;;;;;;;;5155445;27;20569;-64
2023/05/31 11:43:11;;;;;;;3.03;2.17;;;;;;;;;;5155354;27;20202;-65
2023/05/31 11:45:42;;;;;;;2.78;2.00;;;;;;;;;;5155880;27;20296;-64
2023/05/31 11:48:30;;;;;;;3.55;1.90;;;;;;;;;;5155173;27;20594;-65
2023/05/31 11:50:57;;;;;;;3.28;1.77;;;;;;;;;;5154966;27;20470;-64
2023/05/31 11:53:28;;;;;;;2.40;1.80;;;;;;;;;;5154024;27;20198;-64
2023/05/31 11:55:55;;;;;;;3.00;1.95;;;;;;;;;;5154753;27;20368;-64
2023/05/31 11:58:22;;;;;;;3.08;2.10;;;;;;;;;;5155333;27;20193;-64
2023/05/31 12:00:50;;;;;;;2.40;1.90;;;;;;;;;;5155175;27;20577;-64
2023/05/31 12:03:20;;;;;;;3.90;1.73;;;;;;;;;;5154251;27;20202;-64
2023/05/31 12:05:51;;;;;;;3.45;1.80;;;;;;;;;;5155326;27;20578;-65
2023/05/31 12:08:19;;;;;;;3.90;2.13;;;;;;;;;;5155974;27;20247;-65
2023/05/31 12:10:47;;;;;;;2.10;1.90;;;;;;;;;;5155478;27;20221;-64
2023/05/31 12:13:17;;;;;;;3.33;1.90;;;;;;;;;;5154722;27;20212;-64
2023/05/31 12:15:53;;;;;;;3.35;1.90;;;;;;;;;;5153708;27;20201;-65
2023/05/31 12:18:22;;;;;;;2.80;1.65;;;;;;;;;;5153877;27;20596;-65
2023/05/31 12:20:49;;;;;;;2.03;1.80;;;;;;;;;;5155087;27;20200;-65
2023/05/31 12:23:18;;;;;;;2.72;1.80;;;;;;;;;;5154396;27;20197;-64
2023/05/31 12:25:48;;;;;;;2.95;1.70;;;;;;;;;;5153824;27;20296;-65
2023/05/31 12:28:17;;;;;;;3.15;2.03;;;;;;;;;;5154172;27;20202;-65
2023/05/31 12:30:45;;;;;;;2.72;1.77;;;;;;;;;;5153731;27;20221;-65
2023/05/31 12:33:13;;;;;;;2.65;1.90;;;;;;;;;;5154568;27;20233;-65
2023/05/31 12:35:44;;;;;;;2.92;1.63;;;;;;;;;;5153373;27;20225;-64
2023/05/31 12:38:13;;;;;;;2.97;1.75;;;;;;;;;;5154246;27;20205;-65
2023/05/31 12:40:42;;;;;;;4.00;1.77;;;;;;;;;;5154113;27;20282;-65
2023/05/31 12:43:12;;;;;;;1.75;1.65;;;;;;;;;;5153535;27;20229;-65
2023/05/31 12:45:40;;;;;;;2.60;1.98;;;;;;;;;;5154284;27;20207;-65
2023/05/31 12:48:09;;;;;;;2.90;2.03;;;;;;;;;;5154021;27;20252;-64
2023/05/31 12:50:36;;;;;;;1.90;1.60;;;;;;;;;;5152427;27;20233;-64
2023/05/31 12:53:06;;;;;;;2.60;1.88;;;;;;;;;;5153226;27;20201;-64
2023/05/31 12:55:34;;;;;;;2.55;1.80;;;;;;;;;;5154560;27;20603;-64
2023/05/31 12:58:01;;;;;;;3.35;2.00;;;;;;;;;;5154151;27;20213;-65
2023/05/31 13:00:32;;;;;;;3.72;1.70;;;;;;;;;;5153231;27;20240;-65
2023/05/31 13:02:59;;;;;;;2.00;1.80;;;;;;;;;;5154404;27;20301;-64
2023/05/31 13:05:26;;;;;;;2.30;2.00;;;;;;;;;;5152062;27;20228;-65
2023/05/31 13:07:54;;;;;;;2.15;1.65;;;;;;;;;;5153680;27;20237;-64
2023/05/31 13:10:22;;;;;;;4.28;1.88;;;;;;;;;;5152157;27;20245;-65
2023/05/31 13:12:49;;;;;;;3.65;1.77;;;;;;;;;;5152747;27;20208;-65
2023/05/31 13:15:17;;;;;;;2.83;1.70;;;;;;;;;;5153588;27;20215;-65
2023/05/31 13:17:46;;;;;;;2.22;1.92;;;;;;;;;;5152440;27;20579;-65
2023/05/31 13:20:13;;;;;;;3.05;1.85;;;;;;;;;;5151931;27;20205;-65
2023/05/31 13:22:41;;;;;;;2.55;1.90;;;;;;;;;;5154072;27;20607;-65
2023/05/31 13:25:09;;;;;;;3.08;2.00;;;;;;;;;;5153142;27;20209;-65
2023/05/31 13:27:36;;;;;;;1.92;1.70;;;;;;;;;;5154471;27;20202;-65
2023/05/31 13:30:04;;;;;;;2.28;1.77;;;;;;;;;;5156475;27;20221;-65
2023/05/31 13:32:31;;;;;;;1.98;1.52;;;;;;;;;;5157200;27;20549;-65
2023/05/31 13:35:00;;;;;;;2.55;1.90;;;;;;;;;;5156507;27;20609;-64
2023/05/31 13:37:27;;;;;;;3.40;1.80;;;;;;;;;;5157111;27;20210;-65
2023/05/31 13:39:55;;;;;;;2.78;1.80;;;;;;;;;;5157218;27;20198;-65
2023/05/31 13:42:23;;;;;;;1.95;1.67;;;;;;;;;;5156520;27;20201;-65
2023/05/31 13:44:50;;;;;;;2.88;1.70;;;;;;;;;;5157025;27;20193;-65
2023/05/31 13:47:17;;;;;;;3.35;1.77;;;;;;;;;;5156333;27;20229;-65
2023/05/31 13:49:44;;;;;;;2.47;2.00;;;;;;;;;;5155905;27;20553;-65
2023/05/31 13:52:15;;;;;;;2.20;1.80;;;;;;;;;;5155616;27;20202;-65
2023/05/31 13:54:42;;;;;;;3.10;1.70;;;;;;;;;;5157342;27;20197;-65
2023/05/31 13:57:10;;;;;;;3.22;1.90;;;;;;;;;;5157175;27;20205;-64
2023/05/31 13:59:37;;;;;;;2.35;1.77;;;;;;;;;;5156950;27;20440;-65
2023/05/31 14:02:04;;;;;;;3.83;2.00;;;;;;;;;;5156398;27;20228;-65
2023/05/31 14:04:32;;;;;;;2.42;1.88;;;;;;;;;;5156712;27;20198;-65
2023/05/31 14:07:01;;;;;;;1.90;1.70;;;;;;;;;;5156130;27;20492;-65
2023/05/31 14:09:29;;;;;;;4.53;2.10;;;;;;;;;;5156568;27;20358;-65
2023/05/31 14:11:58;;;;;;;1.80;1.60;;;;;;;;;;5154913;27;20248;-65
2023/05/31 14:14:26;;;;;;;2.63;1.85;;;;;;;;;;5155307;27;20532;-64
2023/05/31 14:16:53;;;;;;;1.80;1.60;;;;;;;;;;5155359;27;20271;-65
2023/05/31 14:19:21;;;;;;;2.45;1.80;;;;;;;;;;5153966;27;20204;-65
2023/05/31 14:21:48;;;;;;;2.13;1.55;;;;;;;;;;5154590;27;20197;-65
2023/05/31 14:24:16;;;;;;;2.00;1.80;;;;;;;;;;5155508;27;20201;-65
2023/05/31 14:26:45;;;;;;;2.10;1.90;;;;;;;;;;5157155;27;20201;-65
2023/05/31 14:29:12;;;;;;;2.30;1.92;;;;;;;;;;5155833;27;20193;-65
2023/05/31 14:31:39;;;;;;;3.47;2.03;;;;;;;;;;5154439;27;20225;-65
2023/05/31 14:34:07;;;;;;;2.03;1.73;;;;;;;;;;5155659;27;20206;-65
2023/05/31 14:36:36;;;;;;;1.75;1.48;;;;;;;;;;5156192;27;20209;-65
2023/05/31 14:39:03;;;;;;;2.75;2.20;;;;;;;;;;5156359;27;20202;-65
2023/05/31 14:41:31;;;;;;;3.88;1.70;;;;;;;;;;5156117;27;20666;-65
2023/05/31 14:44:00;;;;;;;3.28;1.80;;;;;;;;;;5155709;27;20212;-65
2023/05/31 14:46:27;;;;;;;3.20;1.83;;;;;;;;;;5155715;27;20213;-65
2023/05/31 14:48:55;;;;;;;2.65;1.63;;;;;;;;;;5155647;27;20201;-65
2023/05/31 14:51:22;;;;;;;2.55;1.75;;;;;;;;;;5155665;27;20228;-65